sensor_id;sensor_type;location;lat;lon;timestamp;pressure;altitude;pressure_sealevel;temperature;humidity
20350;BME280;10332;50.208;18.988;2022-11-13T00:01:31;99585.91;;;8.87;90.84
20350;BME280;10332;50.208;18.988;2022-11-13T00:03:59;99585.56;;;8.96;90.24
20350;BME280;10332;50.208;18.988;2022-11-13T00:06:26;99589.88;;;8.97;89.98
20350;BME280;10332;50.208;18.988;2022-11-13T00:08:54;99580.34;;;8.96;89.83
20350;BME280;10332;50.208;18.988;2022-11-13T00:11:22;99582.66;;;8.80;90.11
20350;BME280;10332;50.208;18.988;2022-11-13T00:13:49;99581.88;;;8.78;90.11
20350;BME280;10332;50.208;18.988;2022-11-13T00:16:19;99580.25;;;8.75;89.91
20350;BME280;10332;50.208;18.988;2022-11-13T00:18:47;99576.63;;;8.79;90.04
20350;BME280;10332;50.208;18.988;2022-11-13T00:21:21;99577.47;;;8.80;89.80
20350;BME280;10332;50.208;18.988;2022-11-13T00:23:50;99574.19;;;8.75;89.65
20350;BME280;10332;50.208;18.988;2022-11-13T00:26:22;99574.94;;;8.55;90.15
20350;BME280;10332;50.208;18.988;2022-11-13T00:28:59;99580.00;;;8.58;89.73
20350;BME280;10332;50.208;18.988;2022-11-13T00:31:28;99574.56;;;8.41;90.25
20350;BME280;10332;50.208;18.988;2022-11-13T00:33:57;99575.69;;;8.32;90.68
20350;BME280;10332;50.208;18.988;2022-11-13T00:36:45;99575.03;;;8.27;90.86
20350;BME280;10332;50.208;18.988;2022-11-13T00:39:13;99579.94;;;8.36;90.57
20350;BME280;10332;50.208;18.988;2022-11-13T00:41:40;99568.84;;;8.30;90.78
20350;BME280;10332;50.208;18.988;2022-11-13T00:44:08;99573.47;;;8.21;91.12
20350;BME280;10332;50.208;18.988;2022-11-13T00:46:35;99577.34;;;8.10;91.43
20350;BME280;10332;50.208;18.988;2022-11-13T00:49:03;99569.03;;;8.00;92.25
20350;BME280;10332;50.208;18.988;2022-11-13T00:51:31;99566.72;;;7.91;93.03
20350;BME280;10332;50.208;18.988;2022-11-13T00:53:58;99565.72;;;7.95;92.79
20350;BME280;10332;50.208;18.988;2022-11-13T00:56:25;99556.34;;;7.89;92.51
20350;BME280;10332;50.208;18.988;2022-11-13T00:58:53;99561.72;;;7.85;92.81
20350;BME280;10332;50.208;18.988;2022-11-13T01:01:20;99557.13;;;7.93;92.90
20350;BME280;10332;50.208;18.988;2022-11-13T01:03:48;99555.19;;;7.98;92.84
20350;BME280;10332;50.208;18.988;2022-11-13T01:06:23;99552.50;;;8.01;92.40
20350;BME280;10332;50.208;18.988;2022-11-13T01:08:56;99559.47;;;8.01;92.19
20350;BME280;10332;50.208;18.988;2022-11-13T01:11:27;99548.41;;;7.94;92.32
20350;BME280;10332;50.208;18.988;2022-11-13T01:13:55;99551.00;;;7.94;92.11
20350;BME280;10332;50.208;18.988;2022-11-13T01:16:26;99555.38;;;7.93;91.60
20350;BME280;10332;50.208;18.988;2022-11-13T01:18:54;99557.19;;;7.90;91.60
20350;BME280;10332;50.208;18.988;2022-11-13T01:21:25;99558.41;;;7.80;91.15
20350;BME280;10332;50.208;18.988;2022-11-13T01:23:54;99555.13;;;7.75;91.31
20350;BME280;10332;50.208;18.988;2022-11-13T01:26:29;99542.94;;;7.77;90.83
20350;BME280;10332;50.208;18.988;2022-11-13T01:28:58;99548.84;;;7.82;90.65
20350;BME280;10332;50.208;18.988;2022-11-13T01:31:29;99550.53;;;7.83;90.28
20350;BME280;10332;50.208;18.988;2022-11-13T01:33:57;99550.53;;;7.83;90.22
20350;BME280;10332;50.208;18.988;2022-11-13T01:36:27;99549.03;;;7.76;90.31
20350;BME280;10332;50.208;18.988;2022-11-13T01:38:55;99545.78;;;7.69;90.67
20350;BME280;10332;50.208;18.988;2022-11-13T01:41:32;99536.78;;;7.53;91.30
20350;BME280;10332;50.208;18.988;2022-11-13T01:44:00;99543.88;;;7.48;91.48
20350;BME280;10332;50.208;18.988;2022-11-13T01:51:42;99520.84;;;7.37;91.91
20350;BME280;10332;50.208;18.988;2022-11-13T01:54:16;99518.44;;;7.31;91.57
20350;BME280;10332;50.208;18.988;2022-11-13T01:56:45;99520.53;;;7.20;92.14
20350;BME280;10332;50.208;18.988;2022-11-13T01:59:18;99505.97;;;7.14;92.46
20350;BME280;10332;50.208;18.988;2022-11-13T02:01:46;99507.84;;;7.09;92.73
20350;BME280;10332;50.208;18.988;2022-11-13T02:04:14;99504.00;;;7.22;92.21
20350;BME280;10332;50.208;18.988;2022-11-13T02:06:57;99502.94;;;7.01;92.96
20350;BME280;10332;50.208;18.988;2022-11-13T02:09:34;99500.47;;;6.97;94.08
20350;BME280;10332;50.208;18.988;2022-11-13T02:12:06;99499.78;;;6.90;94.89
20350;BME280;10332;50.208;18.988;2022-11-13T02:14:38;99496.28;;;6.91;94.77
20350;BME280;10332;50.208;18.988;2022-11-13T02:17:11;99493.69;;;6.91;94.71
20350;BME280;10332;50.208;18.988;2022-11-13T02:19:49;99494.69;;;6.87;95.24
20350;BME280;10332;50.208;18.988;2022-11-13T02:23:13;99495.44;;;6.92;95.13
20350;BME280;10332;50.208;18.988;2022-11-13T02:25:46;99498.66;;;6.99;95.28
20350;BME280;10332;50.208;18.988;2022-11-13T02:28:16;99483.75;;;7.05;94.94
20350;BME280;10332;50.208;18.988;2022-11-13T02:30:43;99487.50;;;7.23;94.48
20350;BME280;10332;50.208;18.988;2022-11-13T02:33:31;99487.34;;;7.28;94.37
20350;BME280;10332;50.208;18.988;2022-11-13T02:35:59;99493.25;;;7.33;94.14
20350;BME280;10332;50.208;18.988;2022-11-13T02:38:27;99494.16;;;7.32;93.91
20350;BME280;10332;50.208;18.988;2022-11-13T02:40:55;99489.88;;;7.31;94.03
20350;BME280;10332;50.208;18.988;2022-11-13T02:43:22;99490.53;;;7.37;93.48
20350;BME280;10332;50.208;18.988;2022-11-13T02:45:49;99483.34;;;7.44;93.29
20350;BME280;10332;50.208;18.988;2022-11-13T02:48:16;99489.25;;;7.49;93.08
20350;BME280;10332;50.208;18.988;2022-11-13T02:50:45;99490.97;;;7.50;92.64
20350;BME280;10332;50.208;18.988;2022-11-13T02:53:12;99487.50;;;7.50;92.71
20350;BME280;10332;50.208;18.988;2022-11-13T02:55:40;99488.97;;;7.58;92.45
20350;BME280;10332;50.208;18.988;2022-11-13T02:58:07;99493.84;;;7.67;92.34
20350;BME280;10332;50.208;18.988;2022-11-13T03:00:34;99500.63;;;7.72;92.02
20350;BME280;10332;50.208;18.988;2022-11-13T03:03:02;99496.25;;;7.74;92.03
20350;BME280;10332;50.208;18.988;2022-11-13T03:05:29;99498.53;;;7.83;91.56
20350;BME280;10332;50.208;18.988;2022-11-13T03:07:56;99493.28;;;7.84;91.30
20350;BME280;10332;50.208;18.988;2022-11-13T03:10:23;99499.16;;;7.89;91.16
20350;BME280;10332;50.208;18.988;2022-11-13T03:12:51;99503.44;;;7.90;90.79
20350;BME280;10332;50.208;18.988;2022-11-13T03:15:18;99505.03;;;7.69;91.38
20350;BME280;10332;50.208;18.988;2022-11-13T03:17:45;99500.19;;;7.59;92.46
20350;BME280;10332;50.208;18.988;2022-11-13T03:20:12;99499.94;;;7.66;92.24
20350;BME280;10332;50.208;18.988;2022-11-13T03:22:40;99497.22;;;7.69;92.09
20350;BME280;10332;50.208;18.988;2022-11-13T03:25:07;99495.53;;;7.68;92.39
20350;BME280;10332;50.208;18.988;2022-11-13T03:27:37;99497.75;;;7.54;93.32
20350;BME280;10332;50.208;18.988;2022-11-13T03:30:05;99496.94;;;7.52;92.97
20350;BME280;10332;50.208;18.988;2022-11-13T03:32:32;99498.81;;;7.49;93.67
20350;BME280;10332;50.208;18.988;2022-11-13T03:35:00;99492.00;;;7.45;93.81
20350;BME280;10332;50.208;18.988;2022-11-13T03:37:27;99506.53;;;7.50;93.84
20350;BME280;10332;50.208;18.988;2022-11-13T03:39:54;99514.22;;;7.27;95.11
20350;BME280;10332;50.208;18.988;2022-11-13T03:42:22;99507.09;;;7.33;94.75
20350;BME280;10332;50.208;18.988;2022-11-13T03:44:49;99509.44;;;7.41;94.87
20350;BME280;10332;50.208;18.988;2022-11-13T03:47:16;99504.84;;;7.49;94.47
20350;BME280;10332;50.208;18.988;2022-11-13T03:49:43;99509.19;;;7.49;94.62
20350;BME280;10332;50.208;18.988;2022-11-13T03:52:10;99514.88;;;7.33;95.71
20350;BME280;10332;50.208;18.988;2022-11-13T03:54:38;99515.72;;;7.34;95.92
20350;BME280;10332;50.208;18.988;2022-11-13T03:57:05;99506.00;;;7.40;95.68
20350;BME280;10332;50.208;18.988;2022-11-13T03:59:32;99502.25;;;7.49;95.15
20350;BME280;10332;50.208;18.988;2022-11-13T04:02:00;99499.47;;;7.55;95.22
20350;BME280;10332;50.208;18.988;2022-11-13T04:04:27;99495.97;;;7.56;95.17
20350;BME280;10332;50.208;18.988;2022-11-13T04:06:54;99491.44;;;7.61;94.55
20350;BME280;10332;50.208;18.988;2022-11-13T04:09:22;99495.53;;;7.68;94.47
20350;BME280;10332;50.208;18.988;2022-11-13T04:11:49;99497.09;;;7.74;94.11
20350;BME280;10332;50.208;18.988;2022-11-13T04:14:17;99497.56;;;7.85;93.85
20350;BME280;10332;50.208;18.988;2022-11-13T04:16:44;99491.41;;;7.88;93.68
20350;BME280;10332;50.208;18.988;2022-11-13T04:19:11;99490.34;;;7.93;93.35
20350;BME280;10332;50.208;18.988;2022-11-13T04:21:39;99501.72;;;7.91;93.17
20350;BME280;10332;50.208;18.988;2022-11-13T04:24:06;99495.75;;;7.87;92.97
20350;BME280;10332;50.208;18.988;2022-11-13T04:26:34;99493.16;;;7.87;92.81
20350;BME280;10332;50.208;18.988;2022-11-13T04:29:01;99495.75;;;7.87;92.95
20350;BME280;10332;50.208;18.988;2022-11-13T04:31:28;99495.88;;;7.84;93.02
20350;BME280;10332;50.208;18.988;2022-11-13T04:33:56;99502.78;;;7.85;93.09
20350;BME280;10332;50.208;18.988;2022-11-13T04:36:23;99501.81;;;7.88;93.20
20350;BME280;10332;50.208;18.988;2022-11-13T04:38:50;99494.78;;;7.90;93.26
20350;BME280;10332;50.208;18.988;2022-11-13T04:41:17;99495.50;;;7.95;93.12
20350;BME280;10332;50.208;18.988;2022-11-13T04:44:03;99499.53;;;8.04;92.61
20350;BME280;10332;50.208;18.988;2022-11-13T04:46:30;99504.84;;;8.01;92.94
20350;BME280;10332;50.208;18.988;2022-11-13T04:48:58;99509.09;;;8.03;92.68
20350;BME280;10332;50.208;18.988;2022-11-13T04:51:25;99507.97;;;8.10;92.66
20350;BME280;10332;50.208;18.988;2022-11-13T04:53:52;99493.94;;;8.14;92.41
20350;BME280;10332;50.208;18.988;2022-11-13T04:56:20;99493.41;;;8.05;92.45
20350;BME280;10332;50.208;18.988;2022-11-13T04:58:47;99508.88;;;8.09;92.37
20350;BME280;10332;50.208;18.988;2022-11-13T05:01:14;99501.22;;;8.05;92.66
20350;BME280;10332;50.208;18.988;2022-11-13T05:03:42;99501.53;;;7.95;93.29
20350;BME280;10332;50.208;18.988;2022-11-13T05:06:10;99498.94;;;7.95;93.33
20350;BME280;10332;50.208;18.988;2022-11-13T05:08:37;99496.34;;;7.95;94.08
20350;BME280;10332;50.208;18.988;2022-11-13T05:11:05;99501.59;;;7.94;94.03
20350;BME280;10332;50.208;18.988;2022-11-13T05:13:35;99493.69;;;7.97;94.06
20350;BME280;10332;50.208;18.988;2022-11-13T05:16:09;99494.47;;;7.99;94.21
20350;BME280;10332;50.208;18.988;2022-11-13T05:18:38;99496.22;;;7.98;94.33
20350;BME280;10332;50.208;18.988;2022-11-13T05:21:07;99497.97;;;7.98;94.76
20350;BME280;10332;50.208;18.988;2022-11-13T05:23:35;99496.41;;;7.94;95.05
20350;BME280;10332;50.208;18.988;2022-11-13T05:26:10;99493.81;;;7.94;95.26
20350;BME280;10332;50.208;18.988;2022-11-13T05:28:38;99482.44;;;7.96;95.21
20350;BME280;10332;50.208;18.988;2022-11-13T05:31:14;99482.38;;;7.98;95.25
20350;BME280;10332;50.208;18.988;2022-11-13T05:33:42;99477.41;;;7.92;95.63
20350;BME280;10332;50.208;18.988;2022-11-13T05:36:14;99479.78;;;7.98;95.49
20350;BME280;10332;50.208;18.988;2022-11-13T05:38:42;99483.22;;;7.98;95.46
20350;BME280;10332;50.208;18.988;2022-11-13T05:41:19;99477.28;;;7.95;95.85
20350;BME280;10332;50.208;18.988;2022-11-13T05:43:48;99474.44;;;8.03;95.49
20350;BME280;10332;50.208;18.988;2022-11-13T05:46:24;99477.59;;;8.11;95.41
20350;BME280;10332;50.208;18.988;2022-11-13T05:48:59;99471.44;;;8.13;95.28
20350;BME280;10332;50.208;18.988;2022-11-13T05:51:30;99468.84;;;8.13;95.27
20350;BME280;10332;50.208;18.988;2022-11-13T05:53:59;99474.16;;;8.10;95.69
20350;BME280;10332;50.208;18.988;2022-11-13T05:56:31;99473.13;;;8.14;95.69
20350;BME280;10332;50.208;18.988;2022-11-13T05:59:00;99475.78;;;8.13;95.57
20350;BME280;10332;50.208;18.988;2022-11-13T06:01:39;99479.38;;;8.10;95.59
20350;BME280;10332;50.208;18.988;2022-11-13T06:04:08;99475.00;;;8.11;95.69
20350;BME280;10332;50.208;18.988;2022-11-13T06:06:35;99481.31;;;8.04;95.92
20350;BME280;10332;50.208;18.988;2022-11-13T06:09:05;99476.13;;;8.04;96.10
20350;BME280;10332;50.208;18.988;2022-11-13T06:11:33;99477.19;;;7.98;96.70
20350;BME280;10332;50.208;18.988;2022-11-13T06:14:00;99475.47;;;7.97;96.65
20350;BME280;10332;50.208;18.988;2022-11-13T06:16:33;99485.03;;;7.96;96.66
20350;BME280;10332;50.208;18.988;2022-11-13T06:19:05;99475.41;;;7.98;96.51
20350;BME280;10332;50.208;18.988;2022-11-13T06:21:35;99482.50;;;7.95;96.96
20350;BME280;10332;50.208;18.988;2022-11-13T06:24:04;99475.88;;;7.86;97.15
20350;BME280;10332;50.208;18.988;2022-11-13T06:26:34;99480.16;;;7.87;96.84
20350;BME280;10332;50.208;18.988;2022-11-13T06:29:05;99477.44;;;7.90;97.12
20350;BME280;10332;50.208;18.988;2022-11-13T06:31:35;99478.47;;;7.86;97.32
20350;BME280;10332;50.208;18.988;2022-11-13T06:34:04;99489.28;;;7.99;96.94
20350;BME280;10332;50.208;18.988;2022-11-13T06:36:34;99489.25;;;8.01;96.88
20350;BME280;10332;50.208;18.988;2022-11-13T06:39:06;99480.28;;;8.09;96.53
20350;BME280;10332;50.208;18.988;2022-11-13T06:41:36;99474.22;;;8.09;96.53
20350;BME280;10332;50.208;18.988;2022-11-13T06:44:04;99477.50;;;8.14;96.14
20350;BME280;10332;50.208;18.988;2022-11-13T06:46:31;99471.44;;;8.13;95.82
20350;BME280;10332;50.208;18.988;2022-11-13T06:49:00;99472.28;;;8.14;96.05
20350;BME280;10332;50.208;18.988;2022-11-13T06:51:29;99470.41;;;8.17;96.17
20350;BME280;10332;50.208;18.988;2022-11-13T06:53:57;99458.72;;;8.29;95.63
20350;BME280;10332;50.208;18.988;2022-11-13T06:56:25;99463.75;;;8.34;95.53
20350;BME280;10332;50.208;18.988;2022-11-13T06:58:54;99458.53;;;8.34;95.74
20350;BME280;10332;50.208;18.988;2022-11-13T07:01:24;99458.22;;;8.19;95.74
20350;BME280;10332;50.208;18.988;2022-11-13T07:03:52;99461.28;;;8.31;96.17
20350;BME280;10332;50.208;18.988;2022-11-13T07:06:23;99455.75;;;8.40;95.82
20350;BME280;10332;50.208;18.988;2022-11-13T07:08:51;99452.63;;;8.53;95.54
20350;BME280;10332;50.208;18.988;2022-11-13T07:11:21;99453.38;;;8.57;95.47
20350;BME280;10332;50.208;18.988;2022-11-13T07:13:55;99459.78;;;8.70;95.33
20350;BME280;10332;50.208;18.988;2022-11-13T07:16:22;99464.91;;;8.73;95.03
20350;BME280;10332;50.208;18.988;2022-11-13T07:18:54;99472.34;;;8.82;94.34
20350;BME280;10332;50.208;18.988;2022-11-13T07:21:22;99471.50;;;8.82;93.74
20350;BME280;10332;50.208;18.988;2022-11-13T07:23:50;99466.00;;;8.90;93.47
20350;BME280;10332;50.208;18.988;2022-11-13T07:26:18;99459.81;;;8.92;93.71
20350;BME280;10332;50.208;18.988;2022-11-13T07:28:46;99455.94;;;9.02;93.00
20350;BME280;10332;50.208;18.988;2022-11-13T07:31:16;99459.25;;;9.06;92.41
20350;BME280;10332;50.208;18.988;2022-11-13T07:33:45;99448.25;;;8.99;92.32
20350;BME280;10332;50.208;18.988;2022-11-13T07:36:14;99454.41;;;8.97;91.91
20350;BME280;10332;50.208;18.988;2022-11-13T07:38:41;99459.44;;;8.79;92.26
20350;BME280;10332;50.208;18.988;2022-11-13T07:41:08;99460.81;;;8.66;93.04
20350;BME280;10332;50.208;18.988;2022-11-13T07:43:36;99457.81;;;8.77;93.22
20350;BME280;10332;50.208;18.988;2022-11-13T07:46:04;99466.41;;;8.79;93.55
20350;BME280;10332;50.208;18.988;2022-11-13T07:48:31;99460.66;;;8.93;93.37
20350;BME280;10332;50.208;18.988;2022-11-13T07:51:01;99457.84;;;8.99;93.04
20350;BME280;10332;50.208;18.988;2022-11-13T07:53:29;99459.69;;;9.17;92.33
20350;BME280;10332;50.208;18.988;2022-11-13T07:56:01;99459.88;;;9.13;91.57
20350;BME280;10332;50.208;18.988;2022-11-13T07:58:29;99458.66;;;9.21;91.48
20350;BME280;10332;50.208;18.988;2022-11-13T08:01:05;99467.00;;;9.07;90.24
20350;BME280;10332;50.208;18.988;2022-11-13T08:03:32;99465.56;;;9.22;90.38
20350;BME280;10332;50.208;18.988;2022-11-13T08:06:06;99468.78;;;9.29;89.74
20350;BME280;10332;50.208;18.988;2022-11-13T08:08:34;99462.50;;;9.33;89.74
20350;BME280;10332;50.208;18.988;2022-11-13T08:11:06;99465.03;;;9.34;89.50
20350;BME280;10332;50.208;18.988;2022-11-13T08:13:35;99462.50;;;9.33;89.50
20350;BME280;10332;50.208;18.988;2022-11-13T08:16:04;99464.94;;;9.37;89.18
20350;BME280;10332;50.208;18.988;2022-11-13T08:18:32;99467.94;;;9.49;88.75
20350;BME280;10332;50.208;18.988;2022-11-13T08:21:02;99462.34;;;9.58;88.72
20350;BME280;10332;50.208;18.988;2022-11-13T08:23:30;99463.06;;;9.61;88.11
20350;BME280;10332;50.208;18.988;2022-11-13T08:26:04;99467.69;;;9.55;87.64
20350;BME280;10332;50.208;18.988;2022-11-13T08:28:32;99476.06;;;9.63;87.78
20350;BME280;10332;50.208;18.988;2022-11-13T08:31:01;99474.34;;;9.62;87.65
20350;BME280;10332;50.208;18.988;2022-11-13T08:33:29;99471.16;;;9.76;87.47
20350;BME280;10332;50.208;18.988;2022-11-13T08:35:58;99463.31;;;9.76;87.12
20350;BME280;10332;50.208;18.988;2022-11-13T08:38:26;99464.03;;;9.79;87.35
20350;BME280;10332;50.208;18.988;2022-11-13T08:40:58;99467.06;;;9.90;87.52
20350;BME280;10332;50.208;18.988;2022-11-13T08:43:33;99463.59;;;9.90;86.53
20350;BME280;10332;50.208;18.988;2022-11-13T08:46:01;99458.94;;;9.96;86.76
20350;BME280;10332;50.208;18.988;2022-11-13T08:48:28;99464.59;;;10.06;86.65
20350;BME280;10332;50.208;18.988;2022-11-13T08:50:57;99473.69;;;10.18;86.67
20350;BME280;10332;50.208;18.988;2022-11-13T08:53:25;99468.31;;;10.21;86.18
20350;BME280;10332;50.208;18.988;2022-11-13T08:55:52;99468.16;;;10.26;86.06
20350;BME280;10332;50.208;18.988;2022-11-13T08:58:19;99471.47;;;10.29;85.96
20350;BME280;10332;50.208;18.988;2022-11-13T09:00:47;99466.25;;;10.09;85.71
20350;BME280;10332;50.208;18.988;2022-11-13T09:03:14;99472.75;;;10.19;86.09
20350;BME280;10332;50.208;18.988;2022-11-13T09:05:42;99469.91;;;10.25;86.49
20350;BME280;10332;50.208;18.988;2022-11-13T09:08:09;99468.09;;;10.46;85.93
20350;BME280;10332;50.208;18.988;2022-11-13T09:10:36;99468.78;;;10.68;84.98
20350;BME280;10332;50.208;18.988;2022-11-13T09:13:05;99482.34;;;10.58;84.38
20350;BME280;10332;50.208;18.988;2022-11-13T09:15:37;99476.84;;;10.64;84.82
20350;BME280;10332;50.208;18.988;2022-11-13T09:18:05;99477.97;;;10.77;84.52
20350;BME280;10332;50.208;18.988;2022-11-13T09:20:33;99488.28;;;10.80;83.59
20350;BME280;10332;50.208;18.988;2022-11-13T09:23:06;99495.13;;;10.83;83.23
20350;BME280;10332;50.208;18.988;2022-11-13T09:25:35;99497.31;;;10.73;82.95
20350;BME280;10332;50.208;18.988;2022-11-13T09:28:05;99491.25;;;10.91;82.99
20350;BME280;10332;50.208;18.988;2022-11-13T09:30:33;99491.38;;;11.07;82.40
20350;BME280;10332;50.208;18.988;2022-11-13T09:33:01;99484.97;;;11.13;81.90
20350;BME280;10332;50.208;18.988;2022-11-13T09:35:30;99481.59;;;11.11;81.09
20350;BME280;10332;50.208;18.988;2022-11-13T09:38:07;99486.66;;;11.14;80.85
20350;BME280;10332;50.208;18.988;2022-11-13T09:41:02;99477.41;;;11.25;80.00
20350;BME280;10332;50.208;18.988;2022-11-13T09:43:42;99478.50;;;11.56;79.88
20350;BME280;10332;50.208;18.988;2022-11-13T09:49:31;99481.75;;;11.61;78.97
20350;BME280;10332;50.208;18.988;2022-11-13T09:52:19;99473.69;;;11.83;78.72
20350;BME280;10332;50.208;18.988;2022-11-13T09:54:47;99478.72;;;11.87;78.13
20350;BME280;10332;50.208;18.988;2022-11-13T09:58:25;99479.91;;;12.15;77.62
20350;BME280;10332;50.208;18.988;2022-11-13T10:00:22;99478.03;;;12.50;75.59
20350;BME280;10332;50.208;18.988;2022-11-13T10:14:33;99477.25;;;12.48;72.83
20350;BME280;10332;50.208;18.988;2022-11-13T10:17:30;99479.97;;;12.13;73.54
20350;BME280;10332;50.208;18.988;2022-11-13T10:20:06;99473.44;;;12.05;74.34
20350;BME280;10332;50.208;18.988;2022-11-13T10:22:48;99478.34;;;11.76;75.20
20350;BME280;10332;50.208;18.988;2022-11-13T10:25:24;99467.41;;;11.68;75.79
20350;BME280;10332;50.208;18.988;2022-11-13T10:28:00;99473.53;;;11.51;76.45
20350;BME280;10332;50.208;18.988;2022-11-13T10:30:49;99467.22;;;11.90;75.84
20350;BME280;10332;50.208;18.988;2022-11-13T10:33:20;99462.75;;;12.74;73.75
20350;BME280;10332;50.208;18.988;2022-11-13T10:36:25;99461.19;;;13.33;71.90
20350;BME280;10332;50.208;18.988;2022-11-13T10:39:08;99463.06;;;13.15;71.37
20350;BME280;10332;50.208;18.988;2022-11-13T10:41:53;99461.38;;;13.14;71.66
20350;BME280;10332;50.208;18.988;2022-11-13T10:44:32;99464.16;;;13.11;71.47
20350;BME280;10332;50.208;18.988;2022-11-13T10:47:17;99463.66;;;13.20;71.05
20350;BME280;10332;50.208;18.988;2022-11-13T10:50:25;99460.13;;;13.21;71.53
20350;BME280;10332;50.208;18.988;2022-11-13T10:52:55;99462.13;;;13.32;71.67
20350;BME280;10332;50.208;18.988;2022-11-13T10:55:39;99464.66;;;13.18;71.31
20350;BME280;10332;50.208;18.988;2022-11-13T10:58:17;99458.44;;;12.89;72.00
20350;BME280;10332;50.208;18.988;2022-11-13T11:00:46;99462.84;;;12.88;72.68
20350;BME280;10332;50.208;18.988;2022-11-13T11:03:22;99457.25;;;12.78;73.20
20350;BME280;10332;50.208;18.988;2022-11-13T11:06:00;99452.66;;;12.66;73.93
20350;BME280;10332;50.208;18.988;2022-11-13T11:08:31;99447.59;;;12.63;74.16
20350;BME280;10332;50.208;18.988;2022-11-13T11:11:14;99454.28;;;12.53;73.82
20350;BME280;10332;50.208;18.988;2022-11-13T11:16:52;99448.16;;;12.37;74.53
20350;BME280;10332;50.208;18.988;2022-11-13T11:19:26;99445.06;;;12.46;74.21
20350;BME280;10332;50.208;18.988;2022-11-13T11:22:21;99434.50;;;12.63;74.16
20350;BME280;10332;50.208;18.988;2022-11-13T11:24:59;99434.00;;;12.88;72.95
20350;BME280;10332;50.208;18.988;2022-11-13T11:27:48;99427.63;;;13.08;72.37
20350;BME280;10332;50.208;18.988;2022-11-13T11:30:20;99440.13;;;13.19;71.92
20350;BME280;10332;50.208;18.988;2022-11-13T11:34:08;99432.25;;;13.19;72.08
20350;BME280;10332;50.208;18.988;2022-11-13T11:36:04;99425.19;;;13.51;71.12
20350;BME280;10332;50.208;18.988;2022-11-13T11:38:47;99419.19;;;13.63;70.46
20350;BME280;10332;50.208;18.988;2022-11-13T11:41:23;99417.47;;;13.78;70.03
20350;BME280;10332;50.208;18.988;2022-11-13T11:44:21;99416.53;;;14.22;69.14
20350;BME280;10332;50.208;18.988;2022-11-13T11:46:51;99412.75;;;14.68;67.50
20350;BME280;10332;50.208;18.988;2022-11-13T11:49:20;99404.97;;;14.94;66.49
20350;BME280;10332;50.208;18.988;2022-11-13T11:52:08;99415.38;;;15.22;64.79
20350;BME280;10332;50.208;18.988;2022-11-13T11:54:58;99408.97;;;15.79;63.18
20350;BME280;10332;50.208;18.988;2022-11-13T12:00:21;99399.66;;;17.21;57.78
20350;BME280;10332;50.208;18.988;2022-11-13T12:06:16;99383.31;;;19.71;52.72
20350;BME280;10332;50.208;18.988;2022-11-13T12:09:32;99369.97;;;22.80;45.52
20350;BME280;10332;50.208;18.988;2022-11-13T12:23:37;99360.94;;;18.02;50.51
20350;BME280;10332;50.208;18.988;2022-11-13T12:26:26;99352.53;;;17.97;51.63
20350;BME280;10332;50.208;18.988;2022-11-13T12:33:01;99349.50;;;16.50;55.50
20350;BME280;10332;50.208;18.988;2022-11-13T12:35:30;99344.19;;;16.38;55.96
20350;BME280;10332;50.208;18.988;2022-11-13T12:38:44;99333.06;;;16.83;55.42
20350;BME280;10332;50.208;18.988;2022-11-13T12:41:45;99330.84;;;17.00;55.25
20350;BME280;10332;50.208;18.988;2022-11-13T12:44:24;99338.97;;;16.50;55.88
20350;BME280;10332;50.208;18.988;2022-11-13T12:46:54;99327.00;;;15.83;57.09
20350;BME280;10332;50.208;18.988;2022-11-13T12:52:02;99333.16;;;14.79;61.48
20350;BME280;10332;50.208;18.988;2022-11-13T12:54:35;99319.34;;;14.63;62.14
20350;BME280;10332;50.208;18.988;2022-11-13T12:57:21;99315.63;;;15.70;60.59
20350;BME280;10332;50.208;18.988;2022-11-13T12:59:57;99305.88;;;17.51;57.17
20350;BME280;10332;50.208;18.988;2022-11-13T13:03:07;99312.16;;;19.45;52.65
20350;BME280;10332;50.208;18.988;2022-11-13T13:12:05;99309.91;;;19.92;47.89
20350;BME280;10332;50.208;18.988;2022-11-13T13:17:42;99315.97;;;21.21;46.08
20350;BME280;10332;50.208;18.988;2022-11-13T13:22:39;99309.56;;;23.42;41.23
20350;BME280;10332;50.208;18.988;2022-11-13T13:25:40;99298.56;;;21.56;43.10
20350;BME280;10332;50.208;18.988;2022-11-13T13:37:24;99296.63;;;24.16;39.88
20350;BME280;10332;50.208;18.988;2022-11-13T13:40:34;99291.00;;;23.85;38.89
20350;BME280;10332;50.208;18.988;2022-11-13T13:46:18;99291.69;;;19.68;44.71
20350;BME280;10332;50.208;18.988;2022-11-13T13:48:52;99287.13;;;18.43;47.95
20350;BME280;10332;50.208;18.988;2022-11-13T13:51:41;99295.59;;;17.70;49.91
20350;BME280;10332;50.208;18.988;2022-11-13T13:54:25;99289.47;;;17.01;51.53
20350;BME280;10332;50.208;18.988;2022-11-13T13:56:56;99285.91;;;16.54;52.74
20350;BME280;10332;50.208;18.988;2022-11-13T13:59:32;99280.75;;;15.92;55.28
20350;BME280;10332;50.208;18.988;2022-11-13T14:02:16;99278.03;;;15.43;56.58
20350;BME280;10332;50.208;18.988;2022-11-13T14:04:50;99279.81;;;15.17;58.22
20350;BME280;10332;50.208;18.988;2022-11-13T14:07:29;99277.06;;;14.93;58.67
20350;BME280;10332;50.208;18.988;2022-11-13T14:10:27;99275.81;;;14.59;60.27
20350;BME280;10332;50.208;18.988;2022-11-13T14:12:55;99278.50;;;14.30;61.45
20350;BME280;10332;50.208;18.988;2022-11-13T14:15:28;99278.19;;;14.08;62.01
20350;BME280;10332;50.208;18.988;2022-11-13T14:20:46;99279.72;;;13.26;65.61
20350;BME280;10332;50.208;18.988;2022-11-13T14:23:37;99268.56;;;12.93;67.57
20350;BME280;10332;50.208;18.988;2022-11-13T14:26:09;99263.66;;;12.72;68.00
20350;BME280;10332;50.208;18.988;2022-11-13T14:29:00;99268.22;;;12.39;69.85
20350;BME280;10332;50.208;18.988;2022-11-13T14:31:33;99257.00;;;12.21;70.14
20350;BME280;10332;50.208;18.988;2022-11-13T14:34:10;99264.28;;;12.00;71.20
20350;BME280;10332;50.208;18.988;2022-11-13T14:36:39;99262.81;;;11.79;73.10
20350;BME280;10332;50.208;18.988;2022-11-13T14:39:21;99252.31;;;11.63;72.98
20350;BME280;10332;50.208;18.988;2022-11-13T14:41:58;99249.31;;;11.37;74.98